Time;durP1;ratioP1;P1;durP2;ratioP2;P2;SDS_P1;SDS_P2;PMS_P1;PMS_P2;Temp;Humidity;BMP_temperature;BMP_pressure;BME280_temperature;BME280_humidity;BME280_pressure;Samples;Min_cycle;Max_cycle;Signal;HPM_P1;HPM_P2
2022/03/23 00:02:26;;;;;;;;;51.75;42.50;;;;;10.12;75.39;102985.66;5075876;28;11640;-70
2022/03/23 00:04:54;;;;;;;;;54.25;43.00;;;;;10.15;75.41;102988.09;5062513;28;12307;-69
2022/03/23 00:07:21;;;;;;;;;54.00;44.75;;;;;10.11;75.20;102981.25;5076271;28;11485;-70
2022/03/23 00:09:48;;;;;;;;;45.00;43.00;;;;;10.16;75.84;102972.72;5091624;28;11472;-69
2022/03/23 00:12:23;;;;;;;;;53.75;41.75;;;;;10.14;75.41;102980.97;5091354;28;12321;-69
2022/03/23 00:14:50;;;;;;;;;43.25;40.00;;;;;10.13;75.01;102981.13;5074201;28;11501;-69
2022/03/23 00:17:16;;;;;;;;;53.25;43.50;;;;;10.01;74.99;102982.19;5071314;28;11295;-70
2022/03/23 00:19:44;;;;;;;;;53.50;42.00;;;;;10.02;75.20;102978.50;5080711;28;11474;-69
2022/03/23 00:22:11;;;;;;;;;43.75;35.00;;;;;10.03;75.54;102980.22;5088156;28;11491;-69
2022/03/23 00:24:37;;;;;;;;;55.25;44.00;;;;;10.04;75.52;102984.63;5071193;28;11237;-69
2022/03/23 00:27:04;;;;;;;;;37.25;35.75;;;;;9.96;74.68;102982.59;5069146;28;11501;-70
2022/03/23 00:29:31;;;;;;;;;50.00;39.50;;;;;9.94;75.04;102991.84;5086549;28;11513;-69
2022/03/23 00:31:57;;;;;;;;;46.25;41.00;;;;;9.95;75.12;102980.03;5070647;28;11566;-69
2022/03/23 00:34:24;;;;;;;;;41.00;35.50;;;;;9.91;74.93;102982.13;5070643;28;11492;-70
2022/03/23 00:36:51;;;;;;;;;39.50;35.50;;;;;9.93;74.63;102982.88;5098910;28;11333;-69
2022/03/23 00:39:20;;;;;;;;;43.50;37.00;;;;;9.82;74.82;102982.91;5091001;28;11321;-69
2022/03/23 00:41:49;;;;;;;;;58.00;44.75;;;;;9.83;75.56;102980.06;5079141;28;11519;-70
2022/03/23 00:44:16;;;;;;;;;48.25;41.75;;;;;9.83;75.19;102981.94;5069392;28;11599;-69
2022/03/23 00:46:43;;;;;;;;;45.75;41.50;;;;;9.73;75.27;102975.59;5070522;28;11584;-69
2022/03/23 00:49:10;;;;;;;;;49.75;39.00;;;;;9.73;75.24;102972.91;5079817;28;12198;-69
2022/03/23 00:51:36;;;;;;;;;47.75;41.50;;;;;9.79;75.17;102980.47;5068509;28;12320;-69
2022/03/23 00:54:03;;;;;;;;;53.25;42.75;;;;;9.68;75.01;102984.13;5086859;28;11509;-70
2022/03/23 00:56:29;;;;;;;;;44.25;38.00;;;;;9.67;75.47;102968.88;5079157;28;11500;-69
2022/03/23 00:58:56;;;;;;;;;54.75;42.75;;;;;9.68;75.06;102976.00;5086506;28;11498;-69
2022/03/23 01:01:23;;;;;;;;;44.25;39.50;;;;;9.57;75.37;102976.88;5058634;28;11493;-69
2022/03/23 01:03:49;;;;;;;;;56.00;44.00;;;;;9.54;75.50;102971.75;5070392;28;11489;-69
2022/03/23 01:06:16;;;;;;;;;49.00;41.00;;;;;9.47;75.75;102967.00;5070847;28;11644;-69
2022/03/23 01:08:42;;;;;;;;;51.50;41.25;;;;;9.48;75.60;102966.00;5069514;28;11506;-68
2022/03/23 01:11:10;;;;;;;;;52.50;44.00;;;;;9.47;75.71;102967.84;5087876;28;11467;-70
2022/03/23 01:13:37;;;;;;;;;50.75;42.00;;;;;9.41;75.36;102971.06;5089245;28;11469;-70
2022/03/23 01:16:05;;;;;;;;;43.00;37.75;;;;;9.44;76.00;102975.38;5065377;28;11515;-71
2022/03/23 01:18:32;;;;;;;;;48.75;37.75;;;;;9.42;75.41;102972.81;5066302;28;11503;-70
2022/03/23 01:21:01;;;;;;;;;44.25;39.50;;;;;9.37;75.55;102969.59;5068726;28;11501;-70
2022/03/23 01:23:28;;;;;;;;;48.00;42.75;;;;;9.39;75.38;102964.06;5070126;28;11496;-71
2022/03/23 01:25:54;;;;;;;;;49.50;40.75;;;;;9.35;75.54;102966.16;5070316;28;11517;-69
2022/03/23 01:28:21;;;;;;;;;48.25;40.75;;;;;9.23;75.64;102972.63;5067644;28;11496;-69
2022/03/23 01:30:47;;;;;;;;;49.25;41.75;;;;;9.19;75.57;102966.63;5069344;28;12271;-69
2022/03/23 01:33:14;;;;;;;;;49.50;42.25;;;;;9.31;75.98;102963.84;5051123;28;11524;-70
2022/03/23 01:35:41;;;;;;;;;47.00;39.25;;;;;9.28;75.86;102966.81;5054265;28;11513;-69
2022/03/23 01:38:08;;;;;;;;;44.25;41.25;;;;;9.27;75.67;102967.81;5085583;28;11497;-68
2022/03/23 01:40:34;;;;;;;;;47.75;40.75;;;;;9.29;76.57;102968.53;5065677;28;11516;-70
2022/03/23 01:43:01;;;;;;;;;48.00;39.75;;;;;9.34;76.26;102960.91;5070825;28;11645;-69
2022/03/23 01:45:27;;;;;;;;;42.25;37.75;;;;;9.35;76.22;102966.16;5072076;28;11493;-69
2022/03/23 01:47:54;;;;;;;;;49.25;42.00;;;;;9.34;76.46;102956.34;5088345;28;11478;-69
2022/03/23 01:50:20;;;;;;;;;41.75;38.75;;;;;9.28;76.34;102959.56;5068623;28;11581;-71
2022/03/23 01:52:47;;;;;;;;;45.50;39.00;;;;;9.27;76.57;102957.84;5069549;28;11485;-69
2022/03/23 01:55:14;;;;;;;;;41.50;41.50;;;;;9.31;76.67;102953.03;5084633;28;11533;-69
2022/03/23 01:57:44;;;;;;;;;52.75;41.75;;;;;9.23;77.03;102951.84;5068382;28;11494;-70
2022/03/23 02:00:12;;;;;;;;;40.50;34.50;;;;;9.26;77.00;102948.03;5071125;28;12273;-69
2022/03/23 02:02:42;;;;;;;;;58.25;42.00;;;;;9.26;77.10;102945.31;5068071;28;11242;-67
2022/03/23 02:05:14;;;;;;;;;35.75;26.00;;;;;9.20;76.81;102949.41;5069010;28;11272;-70
2022/03/23 02:07:47;;;;;;;;;40.00;36.50;;;;;9.11;76.96;102939.34;5067842;28;11214;-68
2022/03/23 02:10:15;;;;;;;;;46.75;39.75;;;;;9.10;76.83;102939.47;5069916;28;11593;-68
2022/03/23 02:13:00;;;;;;;;;43.50;38.50;;;;;9.12;77.14;102940.22;5085115;28;11526;-68
2022/03/23 02:15:29;;;;;;;;;51.50;40.75;;;;;9.05;77.54;102944.41;5072804;28;11498;-70
2022/03/23 02:17:57;;;;;;;;;52.25;40.00;;;;;9.02;77.36;102940.13;5068857;28;11535;-69
2022/03/23 02:20:24;;;;;;;;;50.25;43.00;;;;;8.96;77.61;102937.94;5068268;28;11505;-69
2022/03/23 02:22:51;;;;;;;;;45.75;35.25;;;;;8.98;77.97;102944.06;5068253;28;11490;-69
2022/03/23 02:25:26;;;;;;;;;49.00;41.50;;;;;8.94;77.94;102939.91;5072397;28;11518;-71
2022/03/23 02:27:54;;;;;;;;;48.50;39.50;;;;;8.88;77.68;102938.56;5108157;28;11548;-69
2022/03/23 02:30:22;;;;;;;;;59.25;44.75;;;;;8.89;77.75;102944.81;5072242;28;11599;-69
2022/03/23 02:32:49;;;;;;;;;53.00;41.25;;;;;8.78;77.58;102937.59;5073294;28;11516;-69
2022/03/23 02:35:16;;;;;;;;;49.75;43.25;;;;;8.79;77.49;102947.41;5072081;28;11499;-69
2022/03/23 02:37:42;;;;;;;;;42.75;39.50;;;;;8.78;77.37;102940.31;5086750;28;11519;-70
2022/03/23 02:40:10;;;;;;;;;45.50;39.50;;;;;8.78;77.26;102944.84;5073098;28;11517;-69
2022/03/23 02:42:37;;;;;;;;;50.75;42.25;;;;;8.81;77.50;102941.91;5079700;28;12271;-69
2022/03/23 02:45:05;;;;;;;;;46.75;39.25;;;;;8.79;77.49;102938.47;5072179;28;11501;-68
2022/03/23 02:47:32;;;;;;;;;52.50;42.75;;;;;8.78;77.32;102943.00;5072758;28;11512;-69
2022/03/23 02:49:58;;;;;;;;;53.25;42.50;;;;;8.72;77.48;102938.13;5072173;28;11517;-70
2022/03/23 02:52:25;;;;;;;;;51.50;41.50;;;;;8.68;77.24;102933.09;5072612;28;11459;-69
2022/03/23 03:03:36;;;;;;;;;48.00;38.00;;;;;8.69;77.44;102941.06;5056165;28;11493;-69
2022/03/23 03:06:04;;;;;;;;;39.25;35.25;;;;;8.68;77.29;102939.34;5067735;28;11524;-69
2022/03/23 03:08:47;;;;;;;;;48.50;39.00;;;;;8.70;77.48;102941.94;5085223;28;11509;-70
2022/03/23 03:11:16;;;;;;;;;39.75;38.75;;;;;8.59;77.54;102949.03;5071034;28;11501;-70
2022/03/23 03:13:42;;;;;;;;;38.00;34.75;;;;;8.61;77.86;102948.91;5067628;28;11590;-69
2022/03/23 03:16:09;;;;;;;;;39.00;33.25;;;;;8.62;77.53;102954.19;5051229;28;11527;-70
2022/03/23 03:18:36;;;;;;;;;47.50;41.00;;;;;8.58;78.32;102947.31;5063210;28;11499;-69
2022/03/23 03:21:08;;;;;;;;;35.25;34.25;;;;;8.49;78.11;102950.78;5066988;28;11828;-68
2022/03/23 03:23:41;;;;;;;;;46.50;37.75;;;;;8.47;78.25;102955.44;5052138;28;11173;-69
2022/03/23 03:26:08;;;;;;;;;43.50;41.00;;;;;8.49;78.25;102952.63;5087507;28;11539;-70
2022/03/23 03:28:37;;;;;;;;;47.75;41.00;;;;;8.45;78.52;102954.72;5078082;28;12242;-68
2022/03/23 03:31:05;;;;;;;;;48.50;40.00;;;;;8.37;78.42;102957.16;5070555;28;11490;-69
2022/03/23 03:33:32;;;;;;;;;51.25;42.75;;;;;8.35;78.71;102953.72;5086312;28;11527;-69
2022/03/23 03:35:59;;;;;;;;;49.25;41.50;;;;;8.37;79.32;102957.16;5067438;28;11624;-69
2022/03/23 03:38:30;;;;;;;;;43.75;38.75;;;;;8.29;79.05;102955.03;5049881;28;11584;-69
2022/03/23 03:40:58;;;;;;;;;38.50;35.50;;;;;8.32;79.24;102957.47;5064653;28;11467;-68
2022/03/23 03:43:25;;;;;;;;;54.75;42.25;;;;;8.31;79.01;102963.88;5079247;28;11494;-69
2022/03/23 03:45:53;;;;;;;;;52.00;43.00;;;;;8.26;79.13;102955.28;5071511;28;11570;-70
2022/03/23 03:48:20;;;;;;;;;38.50;33.75;;;;;8.30;79.27;102958.59;5091989;28;11455;-69
2022/03/23 03:50:47;;;;;;;;;42.25;35.75;;;;;8.33;79.02;102956.53;5091893;28;11599;-69
2022/03/23 03:53:13;;;;;;;;;45.50;39.00;;;;;8.20;78.72;102961.16;5091681;28;11581;-69
2022/03/23 03:55:40;;;;;;;;;53.75;44.00;;;;;8.20;78.88;102958.47;5077855;28;11561;-69
2022/03/23 03:58:12;;;;;;;;;35.50;32.25;;;;;8.15;78.49;102952.56;5071527;28;12257;-69
2022/03/23 04:00:39;;;;;;;;;47.00;39.75;;;;;8.12;78.93;102962.75;5070606;28;12295;-69
2022/03/23 04:03:06;;;;;;;;;45.50;40.50;;;;;8.10;78.41;102962.00;5066551;28;11496;-69
2022/03/23 04:05:34;;;;;;;;;43.75;39.50;;;;;8.10;78.81;102952.06;5068447;28;11626;-68
2022/03/23 04:08:00;;;;;;;;;48.75;40.50;;;;;8.03;78.52;102965.19;5086947;28;11486;-69
2022/03/23 04:10:27;;;;;;;;;46.75;38.75;;;;;8.02;78.43;102959.91;5070586;28;12255;-70
2022/03/23 04:12:54;;;;;;;;;49.25;41.75;;;;;8.01;78.54;102963.59;5057880;28;11507;-69
2022/03/23 04:15:21;;;;;;;;;36.25;33.00;;;;;7.99;78.10;102971.81;5051160;28;11571;-69
2022/03/23 04:17:48;;;;;;;;;48.50;41.25;;;;;7.95;78.42;102964.94;5052399;28;12329;-69
2022/03/23 04:20:14;;;;;;;;;49.25;42.00;;;;;7.88;78.42;102966.38;5069740;28;11550;-69
2022/03/23 04:22:41;;;;;;;;;50.50;40.50;;;;;7.90;78.24;102964.41;5072079;28;11509;-70
2022/03/23 04:25:10;;;;;;;;;43.50;38.00;;;;;7.93;78.23;102961.50;5078321;28;11508;-69
2022/03/23 04:27:48;;;;;;;;;45.00;36.00;;;;;7.91;77.89;102966.13;5059961;28;11595;-69
2022/03/23 04:30:17;;;;;;;;;40.00;29.50;;;;;7.90;77.66;102967.09;5050963;28;11547;-69
2022/03/23 04:32:49;;;;;;;;;40.50;40.00;;;;;7.81;78.43;102964.28;5050715;28;12302;-70
2022/03/23 04:35:16;;;;;;;;;45.50;40.75;;;;;7.79;78.35;102966.25;5062127;28;11510;-69
2022/03/23 04:37:43;;;;;;;;;43.75;39.50;;;;;7.75;78.46;102965.63;5078234;28;12314;-68
2022/03/23 04:40:11;;;;;;;;;39.25;36.00;;;;;7.75;79.41;102975.56;5070660;28;11568;-68
2022/03/23 04:42:38;;;;;;;;;55.25;42.25;;;;;7.63;78.63;102974.63;5069372;28;11470;-69
2022/03/23 04:45:06;;;;;;;;;47.75;43.25;;;;;7.68;78.90;102977.84;5070247;28;11497;-68
2022/03/23 04:47:36;;;;;;;;;39.00;32.75;;;;;7.62;79.20;102975.63;5070507;28;12207;-68
2022/03/23 04:50:06;;;;;;;;;50.50;41.00;;;;;7.61;79.96;102980.16;5067995;28;11510;-68
2022/03/23 04:52:33;;;;;;;;;45.50;39.25;;;;;7.64;79.71;102979.91;5075061;28;11550;-68
2022/03/23 04:54:59;;;;;;;;;47.00;38.00;;;;;7.66;79.33;102979.78;5070558;28;12707;-68
2022/03/23 04:57:27;;;;;;;;;36.75;33.75;;;;;7.62;79.52;102983.69;5085004;28;11495;-70
2022/03/23 04:59:54;;;;;;;;;47.00;37.25;;;;;7.56;79.30;102985.03;5090713;28;11491;-68
2022/03/23 05:02:21;;;;;;;;;38.75;35.50;;;;;7.59;79.32;102981.25;5090365;28;11491;-67
2022/03/23 05:04:47;;;;;;;;;50.00;41.00;;;;;7.50;79.07;102981.94;5075217;28;12393;-67
2022/03/23 05:07:14;;;;;;;;;37.75;34.00;;;;;7.53;79.15;102979.03;5069002;28;11684;-70
2022/03/23 05:09:40;;;;;;;;;48.25;42.75;;;;;7.44;79.31;102983.28;5087765;28;11526;-68
2022/03/23 05:12:08;;;;;;;;;44.25;39.00;;;;;7.44;79.49;102985.13;5090059;28;11488;-68
2022/03/23 05:14:35;;;;;;;;;43.00;40.25;;;;;7.42;79.27;102985.19;5090138;28;11487;-68
2022/03/23 05:17:02;;;;;;;;;35.75;31.75;;;;;7.43;79.74;102981.53;5090500;28;11473;-68
2022/03/23 05:19:29;;;;;;;;;41.50;33.75;;;;;7.43;79.69;102986.06;5068993;28;11533;-68
2022/03/23 05:21:56;;;;;;;;;46.50;38.75;;;;;7.41;79.64;102986.19;5070038;28;12237;-67
2022/03/23 05:24:22;;;;;;;;;49.75;39.75;;;;;7.41;79.59;102984.34;5070396;28;11468;-68
2022/03/23 05:26:48;;;;;;;;;36.50;31.50;;;;;7.43;79.41;102986.94;5068624;28;11653;-69
2022/03/23 05:29:15;;;;;;;;;34.75;29.00;;;;;7.43;79.41;102986.94;5068026;28;11507;-67
2022/03/23 05:31:41;;;;;;;;;43.25;34.50;;;;;7.39;79.33;102988.13;5069303;28;11627;-67
2022/03/23 05:34:08;;;;;;;;;36.00;33.25;;;;;7.37;79.58;102993.63;5068489;28;11616;-68
2022/03/23 05:36:34;;;;;;;;;47.75;39.25;;;;;7.35;79.62;102989.34;5069966;28;12196;-68
2022/03/23 05:39:01;;;;;;;;;35.50;32.25;;;;;7.33;79.79;102994.84;5070001;28;11483;-69
2022/03/23 05:41:28;;;;;;;;;51.75;39.00;;;;;7.32;79.71;102994.97;5069797;28;11571;-70
2022/03/23 05:43:54;;;;;;;;;41.50;35.25;;;;;7.32;79.90;102998.53;5069926;28;11566;-68
2022/03/23 05:46:21;;;;;;;;;46.50;38.25;;;;;7.30;79.91;102995.09;5078439;28;11623;-68
2022/03/23 05:48:47;;;;;;;;;45.25;38.50;;;;;7.28;80.42;102998.88;5084118;28;11489;-68
2022/03/23 05:51:15;;;;;;;;;51.50;40.00;;;;;7.34;80.07;103006.50;5064219;28;11500;-68
2022/03/23 05:53:41;;;;;;;;;40.00;34.00;;;;;7.34;80.26;103006.50;5069737;28;11548;-70
2022/03/23 05:56:08;;;;;;;;;46.25;33.00;;;;;7.33;80.26;103000.25;5068606;28;11561;-68
2022/03/23 05:58:35;;;;;;;;;32.25;28.50;;;;;7.34;79.85;103001.97;5069830;28;11608;-68
2022/03/23 06:01:02;;;;;;;;;39.50;31.00;;;;;7.36;79.93;103004.53;5068933;28;11466;-68
2022/03/23 06:03:29;;;;;;;;;42.50;37.25;;;;;7.39;80.03;103002.47;5071788;28;11492;-68
2022/03/23 06:05:56;;;;;;;;;51.75;42.25;;;;;7.73;79.76;103002.63;5072255;28;11487;-68
2022/03/23 06:08:23;;;;;;;;;44.50;37.50;;;;;8.15;77.93;102998.41;5072388;28;11566;-68
2022/03/23 06:10:50;;;;;;;;;49.25;41.50;;;;;8.24;76.79;103008.50;5072337;28;11593;-71
2022/03/23 06:13:16;;;;;;;;;58.00;41.25;;;;;8.21;76.82;103005.19;5073355;28;11575;-68
2022/03/23 06:15:43;;;;;;;;;39.50;37.50;;;;;8.10;77.31;103011.41;5086999;28;11555;-68
2022/03/23 06:18:09;;;;;;;;;51.75;41.25;;;;;8.19;77.73;103013.41;5079071;28;11531;-69
2022/03/23 06:20:36;;;;;;;;;48.00;41.75;;;;;8.63;76.94;103012.59;5072122;28;11577;-69
2022/03/23 06:23:02;;;;;;;;;43.75;36.00;;;;;9.01;75.35;103011.34;5071657;28;11556;-70
2022/03/23 06:25:29;;;;;;;;;30.00;27.00;;;;;9.19;74.57;103017.97;5073417;28;12328;-71
2022/03/23 06:27:56;;;;;;;;;48.25;41.00;;;;;9.29;73.65;103019.88;5072260;28;12252;-72
2022/03/23 06:30:22;;;;;;;;;38.25;34.25;;;;;9.37;73.80;103023.66;5085441;28;11522;-72
2022/03/23 06:32:49;;;;;;;;;36.25;32.75;;;;;9.53;73.05;103016.00;5073663;28;11464;-71
2022/03/23 06:35:16;;;;;;;;;40.25;36.75;;;;;9.76;72.60;103018.63;5073250;28;11650;-71
2022/03/23 06:37:43;;;;;;;;;42.25;35.25;;;;;9.98;72.19;103018.50;5068854;28;11515;-70
2022/03/23 06:40:10;;;;;;;;;38.50;35.75;;;;;10.26;70.79;103024.25;5052766;28;11531;-71
2022/03/23 06:42:42;;;;;;;;;36.75;32.50;;;;;10.70;69.38;103029.34;5071575;28;11483;-71
2022/03/23 06:45:09;;;;;;;;;37.50;35.75;;;;;10.84;68.76;103029.97;5091415;28;11257;-71
2022/03/23 06:47:35;;;;;;;;;30.00;26.25;;;;;10.84;68.50;103036.22;5093479;28;11486;-71
2022/03/23 06:50:02;;;;;;;;;40.00;34.75;;;;;10.77;69.21;103033.22;5076867;28;10969;-71
2022/03/23 06:52:31;;;;;;;;;32.00;31.50;;;;;10.86;69.77;103039.66;5086180;28;11211;-71
2022/03/23 06:54:57;;;;;;;;;39.25;33.50;;;;;11.00;69.93;103033.00;5073492;28;10900;-71
2022/03/23 06:57:24;;;;;;;;;41.25;35.00;;;;;11.19;68.97;103034.94;5073741;28;11136;-70
2022/03/23 06:59:51;;;;;;;;;42.00;37.00;;;;;11.23;69.10;103042.66;5083727;28;11190;-70
2022/03/23 07:02:17;;;;;;;;;39.00;31.50;;;;;11.37;68.93;103044.06;5073022;28;11602;-70
2022/03/23 07:04:44;;;;;;;;;40.50;35.50;;;;;11.40;68.45;103038.38;5093672;28;11124;-70
2022/03/23 07:07:10;;;;;;;;;49.50;39.75;;;;;11.31;69.39;103041.94;5093794;28;11132;-70
2022/03/23 07:09:39;;;;;;;;;48.00;39.75;;;;;11.37;69.18;103053.06;5075879;28;12315;-69
2022/03/23 07:12:08;;;;;;;;;47.00;40.00;;;;;11.58;67.76;103049.41;5072837;28;11267;-69
2022/03/23 07:14:37;;;;;;;;;40.00;38.75;;;;;11.78;68.01;103051.16;5069163;28;11496;-70
2022/03/23 07:17:05;;;;;;;;;46.50;39.50;;;;;11.75;66.80;103048.69;5068952;28;11041;-70
2022/03/23 07:19:32;;;;;;;;;43.50;36.00;;;;;11.77;66.64;103049.41;5068318;28;11284;-70
2022/03/23 07:21:59;;;;;;;;;47.75;41.00;;;;;11.84;66.27;103047.88;5088227;28;10955;-70
2022/03/23 07:24:26;;;;;;;;;47.50;39.50;;;;;11.95;65.06;103049.59;5071399;28;11038;-69
2022/03/23 07:26:52;;;;;;;;;43.75;40.00;;;;;12.13;64.83;103053.25;5087749;28;11614;-70
2022/03/23 07:29:40;;;;;;;;;44.00;37.50;;;;;12.19;64.13;103060.00;5070524;28;10996;-71
2022/03/23 07:32:09;;;;;;;;;54.25;42.00;;;;;12.26;62.95;103056.56;5059991;28;11231;-70
2022/03/23 07:34:36;;;;;;;;;51.25;44.00;;;;;12.41;61.83;103056.97;5067985;28;11473;-71
2022/03/23 07:37:03;;;;;;;;;54.75;46.50;;;;;12.04;61.09;103056.88;5069441;28;11488;-71
2022/03/23 07:39:30;;;;;;;;;49.50;43.00;;;;;12.38;61.15;103056.38;5085310;28;11538;-69
2022/03/23 07:41:56;;;;;;;;;50.75;42.50;;;;;12.58;59.91;103058.03;5064122;28;11614;-72
2022/03/23 07:44:24;;;;;;;;;49.00;39.00;;;;;12.86;59.27;103053.50;5069651;28;11635;-70
2022/03/23 07:46:52;;;;;;;;;47.00;37.25;;;;;13.06;60.51;103056.97;5084905;28;11305;-71
2022/03/23 07:49:18;;;;;;;;;40.25;37.00;;;;;13.14;58.26;103059.81;5067904;28;11263;-71
2022/03/23 07:51:45;;;;;;;;;40.50;34.50;;;;;13.31;57.60;103064.47;5069535;28;10915;-69
2022/03/23 07:54:11;;;;;;;;;44.25;37.75;;;;;13.36;57.87;103058.56;5068836;28;10919;-71
2022/03/23 07:56:38;;;;;;;;;45.75;39.50;;;;;13.49;57.79;103057.19;5069430;28;10815;-72
2022/03/23 07:59:05;;;;;;;;;41.00;35.50;;;;;13.53;57.22;103068.63;5072746;28;11106;-72
2022/03/23 08:01:33;;;;;;;;;43.50;38.75;;;;;13.23;55.73;103067.94;5044632;28;10664;-70
2022/03/23 08:04:00;;;;;;;;;53.50;41.00;;;;;13.40;55.63;103065.44;5044489;28;11369;-69
2022/03/23 08:06:29;;;;;;;;;51.50;42.75;;;;;13.64;55.82;103057.53;5046275;28;11039;-68
2022/03/23 08:08:56;;;;;;;;;47.50;41.00;;;;;13.52;53.38;103065.03;5061680;28;11534;-71
2022/03/23 08:11:22;;;;;;;;;59.50;45.00;;;;;13.26;52.53;103072.22;5048163;28;10813;-71
2022/03/23 08:13:49;;;;;;;;;57.25;44.75;;;;;13.63;52.21;103072.16;5048281;28;11095;-72
2022/03/23 08:16:17;;;;;;;;;50.75;43.50;;;;;13.82;51.92;103076.56;5049912;28;11297;-72
2022/03/23 08:18:43;;;;;;;;;43.00;40.75;;;;;14.38;51.52;103069.91;5049034;28;11535;-72
2022/03/23 08:21:10;;;;;;;;;48.25;42.75;;;;;14.46;50.66;103080.88;5047927;28;11090;-73
2022/03/23 08:23:38;;;;;;;;;34.00;33.75;;;;;14.58;51.04;103078.72;5046869;28;11007;-70
2022/03/23 08:26:09;;;;;;;;;45.25;38.75;;;;;14.68;49.60;103076.78;5046189;28;10669;-72
2022/03/23 08:28:38;;;;;;;;;41.50;33.25;;;;;15.01;48.39;103075.91;5047408;28;10855;-70
2022/03/23 08:31:04;;;;;;;;;43.75;40.50;;;;;15.19;47.54;103073.09;5047868;28;10651;-71
2022/03/23 08:33:34;;;;;;;;;47.25;36.75;;;;;15.57;47.30;103068.06;5048387;28;10881;-70
2022/03/23 08:36:02;;;;;;;;;49.50;39.25;;;;;15.68;46.94;103079.59;5044949;28;10606;-70
2022/03/23 08:38:29;;;;;;;;;40.25;37.50;;;;;16.05;46.46;103074.66;5048873;28;10709;-70
2022/03/23 08:40:56;;;;;;;;;48.50;41.25;;;;;15.81;45.88;103078.22;5052056;28;10594;-70
2022/03/23 08:43:23;;;;;;;;;50.25;43.00;;;;;15.79;45.21;103070.19;5048608;28;10674;-71
2022/03/23 08:45:51;;;;;;;;;49.75;41.00;;;;;15.81;43.62;103068.16;5048490;28;10985;-70
2022/03/23 08:48:20;;;;;;;;;40.00;34.50;;;;;16.37;43.30;103066.47;5047025;28;10753;-71
2022/03/23 08:50:48;;;;;;;;;46.25;40.00;;;;;16.29;43.46;103064.56;5050847;28;10359;-71
2022/03/23 08:53:15;;;;;;;;;60.00;42.50;;;;;16.49;43.82;103070.53;5048009;28;10460;-71
2022/03/23 08:55:42;;;;;;;;;49.75;41.25;;;;;16.52;42.72;103063.84;5045233;28;10733;-72
2022/03/23 08:58:09;;;;;;;;;46.00;40.00;;;;;16.83;41.63;103073.03;5050967;28;10907;-71
2022/03/23 09:00:36;;;;;;;;;45.25;39.00;;;;;17.00;42.97;103070.25;5050640;28;10364;-71
2022/03/23 09:03:03;;;;;;;;;51.50;39.50;;;;;16.63;39.77;103073.59;5048681;28;10354;-71
2022/03/23 09:05:31;;;;;;;;;42.75;37.00;;;;;17.13;40.93;103070.56;5043846;28;10501;-71
2022/03/23 09:07:57;;;;;;;;;43.75;37.00;;;;;17.05;39.99;103078.78;5047620;28;10523;-72
2022/03/23 09:10:24;;;;;;;;;43.00;38.25;;;;;17.37;39.28;103080.53;5047636;28;10422;-70
2022/03/23 09:12:50;;;;;;;;;47.50;38.25;;;;;17.40;38.33;103083.75;5048154;28;10309;-70
2022/03/23 09:15:17;;;;;;;;;43.75;37.50;;;;;17.47;38.98;103078.41;5049228;28;10346;-69
2022/03/23 09:17:44;;;;;;;;;39.50;35.75;;;;;17.65;38.84;103076.25;5048384;28;10280;-70
2022/03/23 09:20:12;;;;;;;;;45.50;40.00;;;;;17.83;38.02;103073.22;5049979;28;10135;-70
2022/03/23 09:22:40;;;;;;;;;42.75;38.75;;;;;17.48;36.97;103083.72;5048024;28;10512;-70
2022/03/23 09:25:09;;;;;;;;;34.75;32.25;;;;;17.63;36.29;103088.44;5042926;28;10271;-70
2022/03/23 09:27:38;;;;;;;;;49.75;40.00;;;;;17.44;34.94;103079.63;5048064;28;10805;-70
2022/03/23 09:30:07;;;;;;;;;55.50;42.50;;;;;17.51;36.00;103085.22;5048275;28;10177;-70
2022/03/23 09:32:33;;;;;;;;;48.75;38.50;;;;;17.38;35.23;103082.25;5047404;28;10397;-70
2022/03/23 09:35:00;;;;;;;;;39.50;35.50;;;;;17.73;36.17;103078.13;5047784;28;10265;-69
2022/03/23 09:40:12;;;;;;;;;43.25;36.50;;;;;18.15;35.69;103083.09;5044931;28;10113;-70
2022/03/23 09:42:41;;;;;;;;;41.75;36.75;;;;;18.25;35.31;103074.63;5046711;28;10005;-70
2022/03/23 09:45:08;;;;;;;;;47.50;40.25;;;;;18.18;35.66;103085.47;5046407;28;10050;-70
2022/03/23 09:47:36;;;;;;;;;55.00;42.75;;;;;18.12;34.55;103084.34;5041187;28;10108;-70
2022/03/23 09:50:03;;;;;;;;;37.75;36.50;;;;;18.37;34.69;103075.88;5045464;28;10590;-71
2022/03/23 09:52:29;;;;;;;;;50.25;38.25;;;;;18.29;34.06;103074.06;5045519;28;9930;-70
2022/03/23 09:54:56;;;;;;;;;45.75;38.75;;;;;18.42;34.51;103076.19;5047438;28;9994;-69
2022/03/23 09:57:22;;;;;;;;;46.50;40.00;;;;;18.45;34.00;103073.06;5046979;28;10290;-70
2022/03/23 09:59:49;;;;;;;;;39.25;37.50;;;;;18.63;33.97;103075.50;5046437;28;10207;-71
2022/03/23 10:02:40;;;;;;;;;44.25;33.50;;;;;18.56;32.68;103075.31;5047690;28;9890;-70
2022/03/23 10:05:51;;;;;;;;;43.25;37.50;;;;;18.72;33.11;103075.19;5047826;28;9850;-70
2022/03/23 10:08:48;;;;;;;;;33.50;30.25;;;;;18.84;33.30;103083.84;5046928;28;9754;-69
2022/03/23 10:11:53;;;;;;;;;43.00;37.75;;;;;18.65;32.73;103078.88;5043782;28;9677;-70
2022/03/23 10:14:45;;;;;;;;;39.50;33.00;;;;;18.78;31.54;103084.56;5042848;28;10000;-70
2022/03/23 10:17:37;;;;;;;;;34.00;31.25;;;;;19.02;31.30;103075.19;5047712;28;9684;-70
2022/03/23 10:20:03;;;;;;;;;38.00;35.75;;;;;19.02;30.92;103077.94;5047812;28;9448;-69
2022/03/23 10:22:30;;;;;;;;;36.25;30.00;;;;;19.03;30.91;103071.41;5045235;28;9847;-70
2022/03/23 10:25:08;;;;;;;;;33.25;31.75;;;;;19.30;30.89;103073.44;5044760;28;9581;-70
2022/03/23 10:27:34;;;;;;;;;37.25;33.25;;;;;19.18;30.05;103069.50;5046728;28;9519;-70
2022/03/23 10:30:01;;;;;;;;;30.50;28.50;;;;;19.33;29.74;103062.09;5061769;28;9607;-70
2022/03/23 10:46:40;;;;;;;;;31.00;30.33;;;;;19.40;29.52;103073.16;5583555;23;10592;-72
2022/03/23 10:49:09;;;;;;;;;41.00;36.50;;;;;19.24;30.12;103060.50;4974972;28;9424;-73
2022/03/23 10:51:37;;;;;;;;;38.50;31.25;;;;;19.36;30.24;103067.19;4989222;28;10317;-73
2022/03/23 10:54:16;;;;;;;;;32.25;25.25;;;;;19.75;31.18;103068.72;4977049;28;9568;-73
2022/03/23 10:56:43;;;;;;;;;28.00;26.75;;;;;19.73;30.65;103057.06;4991006;28;9585;-73
2022/03/23 10:59:15;;;;;;;;;37.25;34.25;;;;;19.55;29.47;103068.47;4991581;28;9630;-73
2022/03/23 11:01:55;;;;;;;;;41.50;35.25;;;;;19.28;28.79;103064.53;4978046;28;9566;-73
2022/03/23 11:04:22;;;;;;;;;35.00;32.25;;;;;19.29;29.75;103052.50;4982770;28;9647;-73
2022/03/23 11:06:49;;;;;;;;;36.00;32.00;;;;;19.58;30.15;103062.63;4991367;28;9593;-73
2022/03/23 11:18:06;;;;;;;;;33.33;28.67;;;;;19.79;28.17;103055.41;5000739;28;9518;-73
2022/03/23 11:20:46;;;;;;;;;37.00;31.00;;;;;19.70;27.44;103048.34;5007349;28;9470;-73
2022/03/23 11:23:18;;;;;;;;;30.00;26.67;;;;;19.72;27.87;103049.88;4992161;28;9423;-72
2022/03/23 11:25:47;;;;;;;;;37.00;31.33;;;;;19.67;28.95;103055.94;4984078;28;9248;-74
2022/03/23 11:28:15;;;;;;;;;29.33;28.33;;;;;19.84;27.96;103045.56;5007033;28;9365;-72
2022/03/23 11:30:46;;;;;;;;;38.75;32.75;;;;;19.76;28.55;103051.16;4976578;28;9108;-73
2022/03/23 11:33:21;;;;;;;;;35.75;32.25;;;;;19.50;29.05;103050.84;4976370;28;10885;-73
2022/03/23 11:35:49;;;;;;;;;30.67;23.67;;;;;19.57;27.48;103049.06;4991578;28;9513;-73
2022/03/23 11:38:22;;;;;;;;;27.67;26.33;;;;;19.65;27.33;103044.31;4988132;28;9275;-73
2022/03/23 11:40:50;;;;;;;;;21.00;19.00;;;;;19.84;27.59;103041.97;4974465;28;9165;-70
2022/03/23 11:43:18;;;;;;;;;33.33;28.00;;;;;19.79;28.21;103044.41;4988422;28;9017;-73
2022/03/23 11:46:04;;;;;;;;;28.00;27.00;;;;;19.63;28.72;103034.56;4986856;28;9342;-73
2022/03/23 11:48:52;;;;;;;;;33.33;25.33;;;;;19.52;28.09;103037.78;4992660;28;10050;-73
2022/03/23 11:51:36;;;;;;;;;28.00;26.33;;;;;19.70;28.40;103037.38;4967286;28;9164;-70
2022/03/23 11:54:15;;;;;;;;;29.67;26.33;;;;;19.86;28.95;103024.22;4993004;28;9392;-74
2022/03/23 11:56:56;;;;;;;;;32.33;30.67;;;;;19.74;29.27;103020.28;4996292;28;9183;-72